Time;durP1;ratioP1;P1;durP2;ratioP2;P2;SDS_P1;SDS_P2;PMS_P1;PMS_P2;Temp;Humidity;BMP_temperature;BMP_pressure;BME280_temperature;BME280_humidity;BME280_pressure;Samples;Min_cycle;Max_cycle;Signal;HPM_P1;HPM_P2
2022/03/04 00:00:27;;;;;;;16.33;12.37;;;5.40;69.00;;;;;;5054227;28;20204;-67
2022/03/04 00:02:55;;;;;;;18.90;13.57;;;5.20;69.80;;;;;;5054421;28;20291;-67
2022/03/04 00:05:20;;;;;;;17.58;12.60;;;5.00;71.00;;;;;;5053570;28;20273;-68
2022/03/04 00:07:46;;;;;;;20.20;13.40;;;4.80;71.10;;;;;;5055109;28;20256;-67
2022/03/04 00:10:12;;;;;;;15.87;13.50;;;5.30;71.00;;;;;;5055305;28;20181;-69
2022/03/04 00:12:38;;;;;;;16.03;12.67;;;5.40;70.70;;;;;;5054640;28;20193;-67
2022/03/04 00:15:04;;;;;;;18.50;13.18;;;5.50;70.70;;;;;;5053587;28;20213;-67
2022/03/04 00:17:30;;;;;;;17.02;12.50;;;5.40;70.80;;;;;;5052431;28;20718;-68
2022/03/04 00:19:56;;;;;;;16.13;13.40;;;5.60;70.90;;;;;;5052501;28;20269;-67
2022/03/04 00:22:22;;;;;;;16.25;12.75;;;5.60;70.40;;;;;;5054291;28;20162;-68
2022/03/04 00:24:48;;;;;;;18.60;13.00;;;5.30;69.80;;;;;;5055327;28;20178;-67
2022/03/04 00:27:14;;;;;;;16.17;12.50;;;5.70;70.00;;;;;;5053279;28;20240;-80
2022/03/04 00:29:39;;;;;;;19.90;13.73;;;5.60;69.80;;;;;;5054835;28;20269;-67
2022/03/04 00:32:05;;;;;;;18.73;12.97;;;5.80;69.70;;;;;;5045630;28;20189;-67
2022/03/04 00:34:31;;;;;;;19.95;13.20;;;5.80;69.60;;;;;;5047129;28;20190;-68
2022/03/04 00:36:57;;;;;;;17.60;14.10;;;5.40;69.20;;;;;;5041143;28;20555;-67
2022/03/04 00:39:23;;;;;;;24.63;14.30;;;5.80;69.70;;;;;;5048172;28;20182;-67
2022/03/04 00:41:49;;;;;;;17.13;13.00;;;5.70;69.60;;;;;;5044816;28;20183;-67
2022/03/04 00:44:15;;;;;;;14.77;12.13;;;5.70;69.70;;;;;;5053579;28;20191;-81
2022/03/04 00:46:41;;;;;;;16.00;12.23;;;5.80;70.00;;;;;;5054193;28;20443;-67
2022/03/04 00:49:06;;;;;;;18.20;14.50;;;5.80;70.00;;;;;;5036659;28;20933;-68
2022/03/04 00:51:32;;;;;;;16.47;12.13;;;5.70;70.20;;;;;;5036105;28;20795;-67
2022/03/04 00:53:59;;;;;;;17.38;13.38;;;5.70;70.20;;;;;;5045111;28;20411;-68
2022/03/04 00:56:25;;;;;;;17.27;14.25;;;5.70;70.60;;;;;;5048649;28;20335;-74
2022/03/04 00:58:50;;;;;;;19.53;13.80;;;5.70;70.80;;;;;;5043416;28;20567;-71
2022/03/04 01:01:17;;;;;;;17.50;13.50;;;5.70;70.70;;;;;;5036346;28;20214;-80
2022/03/04 01:03:43;;;;;;;17.95;14.00;;;5.70;71.00;;;;;;5050699;28;20190;-66
2022/03/04 01:06:09;;;;;;;18.77;13.37;;;5.60;70.90;;;;;;5044732;28;20198;-68
2022/03/04 01:08:34;;;;;;;15.43;12.47;;;5.50;71.10;;;;;;5034860;28;20519;-74
2022/03/04 01:11:00;;;;;;;18.13;13.53;;;5.50;71.20;;;;;;5047771;28;20186;-68
2022/03/04 01:13:26;;;;;;;19.63;13.07;;;5.40;71.20;;;;;;5039511;28;20201;-68
2022/03/04 01:15:54;;;;;;;18.00;13.47;;;5.40;71.30;;;;;;5039052;28;20213;-74
2022/03/04 01:18:21;;;;;;;17.15;13.57;;;5.10;71.40;;;;;;5040859;28;20247;-68
2022/03/04 01:20:46;;;;;;;19.60;12.90;;;5.30;72.00;;;;;;5050689;28;20264;-68
2022/03/04 01:23:12;;;;;;;17.77;12.80;;;5.20;72.40;;;;;;5054115;28;20231;-68
2022/03/04 01:25:38;;;;;;;17.97;13.20;;;5.20;72.50;;;;;;5053079;28;20756;-68
2022/03/04 01:28:04;;;;;;;18.03;13.00;;;5.10;72.90;;;;;;5050208;28;20398;-68
2022/03/04 01:30:30;;;;;;;15.37;12.70;;;5.10;73.00;;;;;;5052112;28;20251;-68
2022/03/04 01:32:55;;;;;;;16.23;12.20;;;5.10;73.00;;;;;;5033127;28;20204;-68
2022/03/04 01:35:21;;;;;;;15.90;12.83;;;5.10;73.30;;;;;;5039820;28;20210;-70
2022/03/04 01:37:47;;;;;;;17.50;13.50;;;5.10;73.70;;;;;;5049730;28;20216;-68
2022/03/04 01:40:13;;;;;;;17.10;12.50;;;5.10;73.20;;;;;;5051050;28;20399;-68
2022/03/04 01:42:40;;;;;;;18.92;13.68;;;5.00;73.30;;;;;;5051462;28;20794;-67
2022/03/04 01:45:08;;;;;;;16.63;14.00;;;5.00;73.50;;;;;;5052664;28;20223;-67
2022/03/04 01:47:34;;;;;;;16.33;13.38;;;5.00;74.00;;;;;;5051486;28;20557;-68
2022/03/04 01:50:01;;;;;;;16.73;13.18;;;5.00;74.10;;;;;;5052103;28;20235;-68
2022/03/04 01:52:27;;;;;;;20.20;13.93;;;4.50;73.70;;;;;;5051065;28;20177;-68
2022/03/04 01:54:53;;;;;;;19.67;14.60;;;4.90;74.90;;;;;;5053072;28;20176;-67
2022/03/04 01:57:19;;;;;;;18.50;13.40;;;4.90;75.10;;;;;;5053237;28;20796;-68
2022/03/04 01:59:44;;;;;;;19.07;14.30;;;4.90;75.00;;;;;;5053150;28;20535;-68
2022/03/04 02:02:11;;;;;;;18.23;14.37;;;4.90;75.00;;;;;;5052117;28;20451;-67
2022/03/04 02:04:37;;;;;;;19.10;13.40;;;4.90;75.40;;;;;;5052507;28;20398;-67
2022/03/04 02:07:03;;;;;;;18.87;14.17;;;4.70;75.90;;;;;;5053149;28;20193;-69
2022/03/04 02:09:29;;;;;;;16.85;14.23;;;4.70;76.20;;;;;;5051020;28;20501;-68
2022/03/04 02:11:54;;;;;;;18.20;13.40;;;4.90;76.90;;;;;;5050438;28;20182;-68
2022/03/04 02:14:20;;;;;;;19.37;13.37;;;4.80;76.90;;;;;;5051015;28;20220;-74
2022/03/04 02:16:51;;;;;;;15.30;13.30;;;4.40;75.90;;;;;;5051413;28;20198;-68
2022/03/04 02:19:17;;;;;;;16.98;13.68;;;4.80;76.00;;;;;;5052367;28;20794;-80
2022/03/04 02:21:58;;;;;;;19.48;13.93;;;4.30;75.40;;;;;;5052878;28;20237;-68
2022/03/04 02:24:26;;;;;;;17.30;13.55;;;4.70;76.00;;;;;;5052238;28;20182;-68
2022/03/04 02:26:53;;;;;;;16.80;13.77;;;4.70;75.60;;;;;;5052082;28;20201;-68
2022/03/04 02:29:19;;;;;;;16.95;13.13;;;4.60;75.80;;;;;;5051125;28;20554;-80
2022/03/04 02:31:45;;;;;;;19.77;13.65;;;4.60;76.50;;;;;;5052196;28;20178;-68
2022/03/04 02:34:11;;;;;;;17.35;13.30;;;4.60;76.50;;;;;;5051157;28;20185;-67
2022/03/04 02:36:37;;;;;;;16.67;13.57;;;4.20;76.20;;;;;;5050580;28;20804;-68
2022/03/04 02:39:07;;;;;;;22.08;14.88;;;4.50;77.00;;;;;;5050020;28;20178;-68
2022/03/04 02:41:34;;;;;;;23.08;14.80;;;4.50;77.70;;;;;;5049100;28;20506;-69
2022/03/04 02:44:18;;;;;;;21.70;15.43;;;4.70;78.20;;;;;;5048573;28;20549;-68
2022/03/04 02:46:43;;;;;;;24.73;15.55;;;4.60;78.00;;;;;;5050209;28;20264;-69
2022/03/04 02:49:10;;;;;;;20.07;14.30;;;4.60;78.00;;;;;;5050080;28;20744;-68
2022/03/04 02:51:36;;;;;;;24.15;15.68;;;4.60;78.20;;;;;;5048935;28;20178;-68
2022/03/04 02:54:03;;;;;;;19.88;14.88;;;4.60;78.30;;;;;;5051812;28;20174;-68
2022/03/04 02:56:28;;;;;;;19.60;15.48;;;4.60;78.40;;;;;;5051534;28;20209;-68
2022/03/04 02:58:54;;;;;;;22.70;15.20;;;4.40;77.90;;;;;;5049667;28;20177;-68
2022/03/04 03:01:20;;;;;;;21.93;15.60;;;4.60;78.10;;;;;;5050402;28;20638;-80
2022/03/04 03:03:45;;;;;;;21.87;16.27;;;4.60;78.10;;;;;;5050919;28;20190;-68
2022/03/04 03:06:11;;;;;;;23.67;16.80;;;4.60;78.00;;;;;;5049150;28;20413;-68
2022/03/04 03:08:37;;;;;;;19.07;13.60;;;4.50;78.30;;;;;;5050099;28;20182;-68
2022/03/04 03:11:03;;;;;;;20.97;14.87;;;4.50;79.30;;;;;;5050698;28;20178;-68
2022/03/04 03:13:29;;;;;;;20.38;15.85;;;4.50;79.10;;;;;;5049891;28;20420;-69
2022/03/04 03:15:55;;;;;;;21.80;15.83;;;4.30;79.60;;;;;;5050467;28;20266;-68
2022/03/04 03:18:22;;;;;;;20.80;15.40;;;4.20;80.30;;;;;;5032126;28;20217;-77
2022/03/04 03:20:47;;;;;;;23.87;16.20;;;4.20;80.60;;;;;;5050939;28;20677;-68
2022/03/04 03:23:13;;;;;;;21.53;15.73;;;4.00;81.00;;;;;;5051837;28;20481;-68
2022/03/04 03:25:39;;;;;;;21.40;15.40;;;3.80;82.90;;;;;;5051199;28;20476;-69
2022/03/04 03:28:05;;;;;;;21.13;15.53;;;3.70;84.10;;;;;;5052231;28;20405;-69
2022/03/04 03:30:31;;;;;;;20.17;15.02;;;3.90;83.90;;;;;;5051335;28;20209;-68
2022/03/04 03:32:57;;;;;;;22.20;15.80;;;3.90;83.70;;;;;;5052008;28;20213;-68
2022/03/04 03:35:23;;;;;;;23.42;15.65;;;4.00;83.40;;;;;;5050616;28;20201;-69
2022/03/04 03:37:49;;;;;;;26.50;16.43;;;4.00;83.30;;;;;;5052010;28;20637;-68
2022/03/04 03:40:15;;;;;;;21.67;15.70;;;4.10;83.30;;;;;;5051726;28;20173;-67
2022/03/04 03:42:41;;;;;;;21.92;16.20;;;3.90;82.50;;;;;;5050713;28;20391;-68
2022/03/04 03:45:08;;;;;;;22.80;15.83;;;4.20;82.40;;;;;;5051446;28;20232;-68
2022/03/04 03:47:34;;;;;;;20.65;15.05;;;4.20;82.40;;;;;;5049582;28;20391;-68
2022/03/04 03:50:00;;;;;;;21.43;14.97;;;4.20;82.30;;;;;;5051662;28;20181;-68
2022/03/04 03:52:26;;;;;;;24.80;16.50;;;4.20;82.50;;;;;;5050859;28;20182;-68
2022/03/04 03:54:52;;;;;;;22.83;16.80;;;4.20;82.70;;;;;;5052111;28;20643;-68
2022/03/04 03:57:18;;;;;;;24.13;17.83;;;4.30;82.30;;;;;;5051857;28;20264;-68
2022/03/04 03:59:44;;;;;;;30.17;18.50;;;3.90;81.60;;;;;;5050290;28;20414;-68
2022/03/04 04:02:09;;;;;;;23.20;16.90;;;4.30;82.00;;;;;;5051841;28;20200;-68
2022/03/04 04:04:35;;;;;;;24.40;17.20;;;4.20;82.30;;;;;;5050893;28;20415;-67
2022/03/04 04:07:05;;;;;;;23.87;15.70;;;4.20;82.40;;;;;;5051551;28;20205;-68
2022/03/04 04:09:31;;;;;;;27.52;18.08;;;4.30;82.40;;;;;;5050433;28;20188;-68
2022/03/04 04:11:58;;;;;;;21.58;15.88;;;3.90;82.20;;;;;;5051406;28;20175;-68
2022/03/04 04:14:24;;;;;;;25.58;17.00;;;4.30;82.60;;;;;;5050777;28;20194;-77
2022/03/04 04:16:50;;;;;;;20.03;16.43;;;4.30;82.30;;;;;;5051693;28;20241;-68
2022/03/04 04:19:15;;;;;;;21.93;15.80;;;4.40;82.90;;;;;;5054640;28;20213;-71
2022/03/04 04:21:41;;;;;;;19.07;14.70;;;4.30;82.70;;;;;;5054219;28;20281;-68
2022/03/04 04:24:07;;;;;;;26.53;17.00;;;4.40;82.70;;;;;;5055349;28;20209;-68
2022/03/04 04:26:33;;;;;;;23.53;16.23;;;4.10;82.60;;;;;;5054223;28;20178;-68
2022/03/04 04:28:59;;;;;;;21.07;15.80;;;4.10;83.10;;;;;;5055088;28;20209;-68
2022/03/04 04:31:25;;;;;;;26.47;17.50;;;4.00;83.50;;;;;;5054824;28;20416;-78
2022/03/04 04:33:51;;;;;;;20.75;15.00;;;3.90;84.20;;;;;;5054935;28;20406;-68
2022/03/04 04:36:18;;;;;;;23.40;17.50;;;3.50;84.10;;;;;;5055102;28;20214;-66
2022/03/04 04:38:44;;;;;;;24.15;16.60;;;3.80;84.40;;;;;;5054289;28;20189;-68
2022/03/04 04:41:11;;;;;;;27.55;17.15;;;4.10;84.50;;;;;;5055026;28;20510;-68
2022/03/04 04:43:37;;;;;;;28.63;19.17;;;4.10;84.20;;;;;;5054074;28;20177;-67
2022/03/04 04:46:03;;;;;;;26.65;16.55;;;4.20;83.90;;;;;;5055086;28;20318;-68
2022/03/04 04:48:30;;;;;;;24.85;15.73;;;4.00;84.20;;;;;;5053938;28;20532;-68
2022/03/04 04:50:57;;;;;;;22.55;15.77;;;3.90;84.00;;;;;;5054490;28;20181;-67
2022/03/04 04:53:23;;;;;;;21.80;16.10;;;3.80;83.10;;;;;;5054567;28;20181;-82
2022/03/04 04:55:49;;;;;;;21.60;15.47;;;4.00;83.70;;;;;;5054259;28;20653;-68
2022/03/04 04:58:14;;;;;;;22.50;15.60;;;3.70;84.00;;;;;;5053425;28;20189;-68
2022/03/04 05:00:41;;;;;;;21.43;15.90;;;4.00;84.60;;;;;;5053450;28;20209;-68
2022/03/04 05:03:07;;;;;;;21.23;17.33;;;3.80;84.10;;;;;;5055062;28;20405;-68
2022/03/04 05:05:33;;;;;;;21.38;15.30;;;4.00;84.00;;;;;;5052682;28;20186;-68
2022/03/04 05:07:58;;;;;;;19.70;15.80;;;3.90;84.00;;;;;;5053790;28;20192;-67
2022/03/04 05:10:24;;;;;;;20.90;16.67;;;3.80;84.90;;;;;;5036348;28;20232;-78
2022/03/04 05:12:50;;;;;;;21.67;16.80;;;3.60;86.30;;;;;;5053518;28;20642;-68
2022/03/04 05:15:16;;;;;;;26.60;17.73;;;3.70;87.40;;;;;;5053712;28;20243;-67
2022/03/04 05:17:41;;;;;;;23.17;17.03;;;3.80;86.70;;;;;;5054056;28;20184;-67
2022/03/04 05:20:07;;;;;;;26.80;16.13;;;3.80;86.50;;;;;;5053073;28;20550;-68
2022/03/04 05:22:33;;;;;;;20.33;15.70;;;4.10;86.50;;;;;;5053598;28;20162;-67
2022/03/04 05:24:59;;;;;;;24.93;17.73;;;3.60;85.80;;;;;;5053928;28;20170;-67
2022/03/04 05:27:25;;;;;;;23.27;17.93;;;4.00;85.60;;;;;;5052961;28;20198;-79
2022/03/04 05:29:50;;;;;;;24.93;17.70;;;3.90;85.40;;;;;;5053182;28;20230;-67
2022/03/04 05:32:16;;;;;;;25.83;17.33;;;3.80;85.80;;;;;;5054427;28;20182;-67
2022/03/04 05:34:42;;;;;;;21.42;16.48;;;3.50;85.90;;;;;;5053960;28;20198;-66
2022/03/04 05:37:08;;;;;;;21.90;16.67;;;3.80;86.60;;;;;;5053781;28;20237;-67
2022/03/04 05:39:34;;;;;;;24.37;16.23;;;3.70;86.60;;;;;;5053309;28;20419;-67
2022/03/04 05:41:59;;;;;;;26.17;16.67;;;3.60;87.00;;;;;;5052829;28;20185;-66
2022/03/04 05:44:25;;;;;;;22.43;16.40;;;3.30;88.50;;;;;;5053132;28;21697;-76
2022/03/04 05:46:51;;;;;;;22.67;17.50;;;3.10;90.40;;;;;;5053921;28;20287;-66
2022/03/04 05:49:17;;;;;;;20.63;15.63;;;3.00;90.80;;;;;;5052667;28;20428;-66
2022/03/04 05:51:42;;;;;;;21.50;15.83;;;3.60;90.50;;;;;;5052786;28;20542;-68
2022/03/04 05:54:08;;;;;;;19.77;15.27;;;3.50;90.20;;;;;;5052269;28;20181;-68
2022/03/04 05:56:34;;;;;;;24.47;15.77;;;3.30;90.00;;;;;;5052555;28;20215;-68
2022/03/04 05:59:00;;;;;;;21.40;15.83;;;3.50;89.10;;;;;;5051267;28;20193;-68
2022/03/04 06:01:25;;;;;;;21.10;15.73;;;3.50;88.00;;;;;;5052032;28;20434;-73
2022/03/04 06:03:51;;;;;;;22.47;15.67;;;3.50;87.50;;;;;;5050170;28;20206;-68
2022/03/04 06:06:17;;;;;;;18.83;14.67;;;3.50;86.40;;;;;;5051544;28;20197;-67
2022/03/04 06:08:42;;;;;;;21.23;16.23;;;3.50;86.60;;;;;;5052339;28;20188;-68
2022/03/04 06:11:10;;;;;;;23.93;15.80;;;3.50;86.60;;;;;;5052571;28;20582;-68
2022/03/04 06:13:36;;;;;;;19.85;15.32;;;3.40;86.30;;;;;;5052058;28;20660;-68
2022/03/04 06:16:03;;;;;;;25.85;15.52;;;3.50;85.60;;;;;;5051052;28;20216;-68
2022/03/04 06:18:29;;;;;;;20.48;14.85;;;3.50;86.60;;;;;;5051378;28;20642;-68
2022/03/04 06:20:54;;;;;;;21.70;14.80;;;3.00;87.20;;;;;;5052414;28;20224;-67
2022/03/04 06:23:21;;;;;;;23.33;14.80;;;3.50;87.70;;;;;;5051850;28;20212;-67
2022/03/04 06:25:47;;;;;;;23.30;16.20;;;3.30;86.80;;;;;;5051994;28;20212;-66
2022/03/04 06:28:13;;;;;;;25.33;16.00;;;3.30;87.80;;;;;;5051814;28;20183;-67
2022/03/04 06:30:39;;;;;;;25.13;16.10;;;3.20;89.40;;;;;;5051092;28;20186;-67
2022/03/04 06:35:50;;;;;;;21.40;15.68;;;3.10;90.80;;;;;;5051423;28;20806;-68
2022/03/04 06:38:17;;;;;;;18.83;15.30;;;3.10;91.10;;;;;;5052430;28;20189;-68
2022/03/04 06:40:45;;;;;;;22.38;15.35;;;3.10;91.00;;;;;;5051820;28;20181;-67
2022/03/04 06:43:10;;;;;;;24.38;16.20;;;3.10;90.90;;;;;;5055357;28;20531;-67
2022/03/04 06:45:38;;;;;;;27.40;16.17;;;3.10;90.80;;;;;;5050818;28;20192;-67
2022/03/04 06:48:04;;;;;;;18.70;14.68;;;3.20;91.00;;;;;;5052758;28;20185;-67
2022/03/04 06:50:30;;;;;;;23.95;17.15;;;3.10;91.30;;;;;;5051358;28;20309;-73
2022/03/04 06:52:56;;;;;;;21.42;15.63;;;3.20;91.40;;;;;;5051349;28;20181;-67
2022/03/04 06:55:28;;;;;;;23.40;16.90;;;3.30;91.80;;;;;;5051761;28;20215;-67
2022/03/04 06:57:55;;;;;;;22.38;16.55;;;3.10;91.90;;;;;;5052249;28;20311;-67
2022/03/04 07:00:22;;;;;;;24.17;17.63;;;3.00;92.00;;;;;;5052487;28;20263;-67
2022/03/04 07:02:47;;;;;;;22.83;16.17;;;2.80;92.10;;;;;;5053618;28;20188;-67
2022/03/04 07:05:14;;;;;;;24.00;15.80;;;2.70;92.20;;;;;;5052088;28;20528;-67
2022/03/04 07:07:40;;;;;;;22.77;17.13;;;3.20;92.50;;;;;;5050820;28;20189;-67
2022/03/04 07:10:07;;;;;;;24.20;16.88;;;2.90;92.50;;;;;;5050906;28;20195;-67
2022/03/04 07:12:32;;;;;;;21.25;16.23;;;3.30;92.80;;;;;;5051949;28;20180;-74
2022/03/04 07:14:58;;;;;;;21.73;15.60;;;3.30;92.70;;;;;;5049880;28;20539;-70
2022/03/04 07:17:24;;;;;;;24.13;17.27;;;3.40;92.40;;;;;;5056110;28;20204;-68
2022/03/04 07:19:50;;;;;;;25.60;16.97;;;3.20;92.30;;;;;;5068649;28;20931;-69
2022/03/04 07:22:16;;;;;;;22.10;16.83;;;3.20;92.50;;;;;;5059909;28;20424;-68
2022/03/04 07:24:41;;;;;;;23.10;15.23;;;3.30;92.60;;;;;;5051675;28;20697;-69
2022/03/04 07:27:07;;;;;;;22.40;16.50;;;3.70;92.50;;;;;;5051798;28;20176;-67
2022/03/04 07:29:33;;;;;;;29.00;18.50;;;3.80;92.50;;;;;;5051625;28;20317;-76
2022/03/04 07:31:58;;;;;;;30.20;18.17;;;3.70;92.10;;;;;;5051861;28;20564;-68
2022/03/04 07:34:25;;;;;;;27.37;18.03;;;3.70;91.90;;;;;;5052154;28;20181;-68
2022/03/04 07:36:52;;;;;;;28.92;18.88;;;3.30;91.90;;;;;;5051097;28;20220;-68
2022/03/04 07:39:18;;;;;;;25.63;19.08;;;3.70;92.40;;;;;;5051815;28;20665;-68
2022/03/04 07:41:45;;;;;;;26.58;19.75;;;3.80;92.50;;;;;;5051189;28;20186;-68
2022/03/04 07:44:11;;;;;;;28.55;19.70;;;4.00;92.30;;;;;;5051944;28;20188;-68
2022/03/04 07:46:37;;;;;;;28.50;19.25;;;4.10;91.90;;;;;;5051733;28;20182;-69
2022/03/04 07:49:04;;;;;;;28.67;18.40;;;4.10;91.70;;;;;;5051829;28;20621;-69
2022/03/04 07:51:30;;;;;;;26.65;18.73;;;4.20;91.20;;;;;;5054244;28;20987;-68
2022/03/04 07:53:56;;;;;;;26.03;19.73;;;4.20;90.90;;;;;;5055341;28;20249;-68
2022/03/04 07:56:22;;;;;;;30.97;16.90;;;4.10;90.60;;;;;;5055141;28;20296;-68
2022/03/04 07:58:48;;;;;;;32.70;21.17;;;3.60;90.40;;;;;;5054313;28;20827;-67
2022/03/04 08:01:13;;;;;;;47.23;30.03;;;3.70;90.90;;;;;;5054737;28;20272;-68
2022/03/04 08:03:39;;;;;;;33.40;21.37;;;4.10;91.50;;;;;;5055050;28;20264;-68
2022/03/04 08:06:05;;;;;;;29.73;20.03;;;4.00;91.80;;;;;;5055794;28;20428;-68
2022/03/04 08:08:31;;;;;;;34.30;19.10;;;4.20;91.90;;;;;;5054797;28;20176;-67
2022/03/04 08:10:57;;;;;;;21.83;16.13;;;3.90;91.50;;;;;;5054653;28;20280;-68
2022/03/04 08:13:22;;;;;;;22.50;17.20;;;4.10;91.70;;;;;;5054720;28;20228;-68
2022/03/04 08:15:48;;;;;;;25.40;16.67;;;4.30;90.80;;;;;;5054987;28;20255;-68
2022/03/04 08:18:14;;;;;;;23.53;16.73;;;4.40;91.50;;;;;;5054561;28;20261;-68
2022/03/04 08:20:40;;;;;;;23.77;16.20;;;4.20;91.50;;;;;;5054921;28;20466;-68
2022/03/04 08:23:05;;;;;;;21.80;16.43;;;4.10;90.10;;;;;;5055429;28;20498;-68
2022/03/04 08:25:31;;;;;;;22.37;16.27;;;4.60;90.30;;;;;;5055330;28;20625;-68
2022/03/04 08:27:57;;;;;;;21.88;15.30;;;4.40;88.80;;;;;;5054637;28;20174;-69
2022/03/04 08:30:24;;;;;;;21.58;14.55;;;4.30;88.90;;;;;;5054676;28;20275;-68
2022/03/04 08:32:50;;;;;;;23.07;15.80;;;4.20;90.30;;;;;;5055021;28;20201;-69
2022/03/04 08:35:16;;;;;;;21.67;15.20;;;4.60;89.80;;;;;;5053143;28;20432;-68
2022/03/04 08:37:42;;;;;;;19.10;14.80;;;4.70;89.70;;;;;;5055648;28;20478;-68
2022/03/04 08:40:10;;;;;;;21.20;14.30;;;4.80;87.80;;;;;;5053285;28;20174;-67
2022/03/04 08:42:40;;;;;;;20.83;15.60;;;4.90;86.70;;;;;;5052491;28;20399;-74
2022/03/04 08:45:07;;;;;;;24.10;15.60;;;5.00;88.20;;;;;;5054968;28;20163;-68
2022/03/04 08:47:33;;;;;;;21.48;15.43;;;5.20;89.10;;;;;;5053548;28;20269;-67
2022/03/04 08:49:58;;;;;;;23.33;15.87;;;5.30;89.40;;;;;;5052131;28;20265;-67
2022/03/04 08:52:24;;;;;;;23.00;16.30;;;5.50;88.10;;;;;;5054531;28;20451;-67
2022/03/04 08:54:50;;;;;;;21.70;16.30;;;5.70;87.90;;;;;;5052110;28;20188;-67
2022/03/04 08:57:16;;;;;;;21.47;14.73;;;5.80;87.00;;;;;;5052863;28;20559;-67
2022/03/04 08:59:42;;;;;;;21.95;16.17;;;5.80;85.70;;;;;;5051866;28;20269;-67
2022/03/04 09:02:08;;;;;;;18.47;14.70;;;5.90;84.90;;;;;;5054563;28;20228;-67
2022/03/04 09:04:34;;;;;;;17.40;13.80;;;6.10;86.50;;;;;;5053630;28;20170;-67
2022/03/04 09:07:00;;;;;;;24.10;15.23;;;6.20;85.30;;;;;;5057616;28;20544;-68
2022/03/04 09:09:26;;;;;;;21.53;14.20;;;6.30;83.80;;;;;;5052574;28;20443;-67
2022/03/04 09:11:52;;;;;;;18.57;15.20;;;6.50;83.60;;;;;;5051938;28;20183;-67
2022/03/04 09:14:19;;;;;;;22.03;14.67;;;6.60;83.30;;;;;;5051110;28;20171;-68
2022/03/04 09:16:46;;;;;;;21.37;14.57;;;6.70;83.80;;;;;;5047058;28;20461;-67
2022/03/04 09:19:11;;;;;;;19.17;14.53;;;6.90;82.20;;;;;;5050971;28;20745;-67
2022/03/04 09:21:37;;;;;;;18.73;13.90;;;6.90;79.80;;;;;;5052489;28;20450;-71
2022/03/04 09:24:04;;;;;;;18.07;13.47;;;7.00;80.30;;;;;;5053334;28;20191;-67
2022/03/04 09:26:30;;;;;;;17.40;14.53;;;6.90;76.80;;;;;;5051535;28;20271;-67
2022/03/04 09:28:56;;;;;;;19.20;14.80;;;7.00;79.20;;;;;;5051856;28;20569;-67
2022/03/04 09:31:22;;;;;;;21.47;15.67;;;7.10;78.10;;;;;;5054015;28;20199;-66
2022/03/04 09:33:47;;;;;;;18.10;14.33;;;7.30;78.20;;;;;;5053395;28;20200;-67
2022/03/04 09:36:14;;;;;;;20.23;14.10;;;7.50;80.50;;;;;;5053777;28;20198;-67
2022/03/04 09:38:41;;;;;;;19.90;15.87;;;7.80;79.00;;;;;;5052740;28;20658;-70
2022/03/04 09:41:08;;;;;;;18.20;14.00;;;8.10;80.50;;;;;;5054720;28;20420;-67
2022/03/04 09:43:34;;;;;;;17.80;14.00;;;8.40;78.50;;;;;;5055258;28;20481;-68
2022/03/04 09:46:01;;;;;;;21.83;15.00;;;8.70;77.10;;;;;;5054989;28;20760;-68
2022/03/04 09:48:27;;;;;;;17.70;14.17;;;9.00;76.00;;;;;;5056163;28;20794;-68
2022/03/04 09:50:53;;;;;;;17.63;14.80;;;9.30;72.50;;;;;;5037187;28;20431;-68
2022/03/04 09:53:19;;;;;;;19.17;14.60;;;9.60;72.90;;;;;;5055230;28;20769;-67
2022/03/04 09:55:45;;;;;;;20.37;15.60;;;9.90;71.10;;;;;;5055645;28;20454;-67
2022/03/04 10:02:03;;;;;;;17.90;14.97;;;10.20;64.50;;;;;;5070860;28;20741;-68
2022/03/04 10:09:02;;;;;;;19.73;15.73;;;10.70;65.00;;;;;;5074722;28;20439;-67
2022/03/04 10:15:18;;;;;;;16.87;14.20;;;11.40;62.80;;;;;;5072921;28;20418;-68
2022/03/04 10:18:04;;;;;;;17.20;14.30;;;11.80;64.20;;;;;;5073216;28;20437;-71
2022/03/04 10:20:36;;;;;;;17.97;14.43;;;12.20;63.70;;;;;;5065502;28;20454;-68
2022/03/04 10:23:28;;;;;;;18.13;15.90;;;12.60;62.00;;;;;;5073777;28;20462;-68
2022/03/04 10:25:57;;;;;;;17.57;15.30;;;13.00;61.30;;;;;;5056541;28;20739;-68
2022/03/04 10:28:27;;;;;;;17.23;14.80;;;13.00;56.50;;;;;;5056313;28;20845;-68
2022/03/04 10:30:55;;;;;;;15.97;14.17;;;12.80;55.90;;;;;;5081171;28;20413;-68
2022/03/04 10:33:22;;;;;;;19.87;15.20;;;13.00;57.90;;;;;;5074824;28;20405;-68
2022/03/04 10:36:10;;;;;;;15.80;14.27;;;13.30;57.10;;;;;;5074387;28;20541;-68
2022/03/04 10:53:19;;;;;;;20.30;14.93;;;14.80;51.30;;;;;;5072004;28;20386;-70
2022/03/04 10:55:47;;;;;;;16.97;15.17;;;15.10;52.40;;;;;;5071294;28;20449;-67
2022/03/04 10:58:18;;;;;;;15.63;14.03;;;15.30;51.60;;;;;;5072441;28;20435;-67
2022/03/04 11:00:57;;;;;;;18.30;15.27;;;15.50;50.60;;;;;;5072080;28;20392;-68
2022/03/04 11:03:28;;;;;;;17.53;15.07;;;15.60;50.60;;;;;;5082214;28;20444;-68
2022/03/04 11:05:57;;;;;;;16.17;14.47;;;15.70;50.60;;;;;;5090152;28;20427;-67
2022/03/04 11:08:23;;;;;;;18.10;15.20;;;15.80;51.10;;;;;;5083226;28;20416;-67
2022/03/04 11:10:50;;;;;;;22.93;15.27;;;15.90;50.30;;;;;;5091889;28;21019;-67
2022/03/04 11:13:17;;;;;;;15.00;12.90;;;16.00;50.00;;;;;;5092641;28;20401;-66
2022/03/04 11:15:45;;;;;;;17.50;14.30;;;16.10;49.10;;;;;;5088455;28;20969;-68
2022/03/04 11:18:13;;;;;;;17.17;13.73;;;16.20;48.70;;;;;;5069811;28;20926;-67
2022/03/04 11:20:42;;;;;;;17.57;14.57;;;16.30;49.70;;;;;;5071619;28;20808;-68
2022/03/04 11:23:09;;;;;;;15.93;14.23;;;16.20;48.70;;;;;;5072366;28;20403;-67
2022/03/04 11:25:40;;;;;;;17.77;15.87;;;16.50;48.00;;;;;;5071481;28;20418;-67
2022/03/04 11:28:15;;;;;;;16.90;15.10;;;16.60;48.10;;;;;;5077387;28;20430;-67
2022/03/04 11:30:47;;;;;;;16.37;14.60;;;16.50;45.40;;;;;;5087267;28;20414;-68
2022/03/04 11:33:30;;;;;;;17.63;15.17;;;16.60;46.50;;;;;;5069229;28;20426;-68
2022/03/04 11:36:04;;;;;;;17.20;14.57;;;16.80;48.50;;;;;;5053753;28;20474;-68
2022/03/04 11:38:48;;;;;;;17.33;15.63;;;16.80;46.50;;;;;;5072447;28;20396;-67
2022/03/04 11:41:19;;;;;;;20.87;16.00;;;16.90;47.10;;;;;;5072015;28;20407;-69
2022/03/04 11:43:46;;;;;;;18.90;16.90;;;17.10;47.60;;;;;;5053700;28;20415;-74
2022/03/04 11:46:24;;;;;;;18.67;16.00;;;17.10;47.10;;;;;;5089481;28;20411;-67
2022/03/04 11:49:22;;;;;;;20.17;16.57;;;17.20;47.70;;;;;;5091537;28;20453;-67
2022/03/04 11:52:15;;;;;;;19.53;15.67;;;17.20;44.80;;;;;;5084319;28;20438;-68
2022/03/04 11:55:09;;;;;;;17.80;15.23;;;17.20;47.80;;;;;;5052037;28;20755;-68
2022/03/04 11:57:40;;;;;;;17.07;14.83;;;17.30;46.60;;;;;;5068639;28;20442;-67
2022/03/04 12:00:12;;;;;;;19.63;15.93;;;17.40;45.60;;;;;;5076060;28;20464;-69
2022/03/04 12:02:51;;;;;;;19.83;16.43;;;17.00;44.30;;;;;;5068595;28;20415;-67
2022/03/04 12:05:19;;;;;;;17.90;15.23;;;16.40;44.80;;;;;;5067766;28;20760;-67
2022/03/04 12:07:52;;;;;;;18.73;16.03;;;16.50;46.00;;;;;;5070114;28;20748;-73
2022/03/04 12:10:23;;;;;;;17.23;15.40;;;16.50;45.00;;;;;;5067678;28;20411;-68
2022/03/04 12:13:11;;;;;;;19.47;15.70;;;16.20;44.20;;;;;;5069261;28;20930;-69
2022/03/04 12:15:39;;;;;;;21.20;17.03;;;15.90;46.20;;;;;;5052132;28;20466;-67
2022/03/04 12:18:14;;;;;;;18.90;15.93;;;16.10;47.00;;;;;;5068853;28;21129;-65
2022/03/04 12:20:40;;;;;;;18.10;15.40;;;16.20;46.20;;;;;;5069333;28;20461;-72
2022/03/04 12:23:11;;;;;;;18.47;15.80;;;16.40;46.80;;;;;;5076347;28;20411;-72
2022/03/04 12:25:55;;;;;;;18.07;16.17;;;16.60;47.40;;;;;;5070363;28;20570;-72
2022/03/04 12:28:30;;;;;;;21.37;17.27;;;16.20;44.80;;;;;;5070411;28;20545;-71
2022/03/04 12:31:02;;;;;;;19.97;17.20;;;16.10;45.90;;;;;;5078660;28;20423;-69
2022/03/04 12:33:28;;;;;;;21.30;17.97;;;15.90;46.20;;;;;;5070842;28;20434;-69
2022/03/04 12:35:57;;;;;;;20.00;17.03;;;15.70;45.70;;;;;;5071046;28;20459;-68
2022/03/04 12:38:36;;;;;;;19.00;16.93;;;15.70;46.90;;;;;;5074024;28;20493;-68
2022/03/04 12:41:02;;;;;;;17.73;15.43;;;15.80;47.20;;;;;;5073481;28;20407;-68
2022/03/04 12:43:28;;;;;;;20.80;17.30;;;15.90;48.20;;;;;;5077142;28;20957;-68
2022/03/04 12:45:54;;;;;;;22.30;18.33;;;15.90;47.90;;;;;;5072015;28;20184;-68
2022/03/04 12:48:20;;;;;;;19.70;16.60;;;15.90;49.00;;;;;;5075925;28;20185;-68
2022/03/04 12:50:46;;;;;;;21.00;18.10;;;16.00;48.50;;;;;;5073393;28;20226;-69
2022/03/04 12:53:18;;;;;;;22.20;18.20;;;15.90;48.80;;;;;;5073205;28;20424;-68
2022/03/04 12:55:55;;;;;;;18.17;16.10;;;15.90;49.10;;;;;;5070605;28;20643;-71
2022/03/04 12:58:34;;;;;;;24.10;19.07;;;15.70;50.60;;;;;;5072466;28;20422;-68
2022/03/04 13:01:02;;;;;;;19.13;16.30;;;15.60;51.70;;;;;;5072655;28;20501;-68
2022/03/04 13:03:28;;;;;;;21.87;17.40;;;15.40;51.90;;;;;;5082541;28;20416;-68
2022/03/04 13:05:55;;;;;;;17.33;15.53;;;15.30;51.50;;;;;;5073257;28;20434;-71